Time;durP1;ratioP1;P1;durP2;ratioP2;P2;SDS_P1;SDS_P2;PMS_P1;PMS_P2;Temp;Humidity;BMP_temperature;BMP_pressure;BME280_temperature;BME280_humidity;BME280_pressure;Samples;Min_cycle;Max_cycle;Signal;HPM_P1;HPM_P2
2022/11/02 00:01:24;;;;;;;4.10;1.10;;;12.50;99.90;;;;;;4868859;29;20404;-72
2022/11/02 00:03:49;;;;;;;4.45;1.00;;;12.40;99.90;;;;;;4893701;29;20052;-72
2022/11/02 00:06:15;;;;;;;7.00;1.50;;;12.30;99.90;;;;;;4893908;29;20103;-73
2022/11/02 00:08:41;;;;;;;7.00;1.40;;;12.40;99.90;;;;;;4895155;29;20465;-78
2022/11/02 00:11:06;;;;;;;5.05;1.20;;;12.50;99.90;;;;;;4878703;29;20086;-78
2022/11/02 00:13:32;;;;;;;7.03;1.40;;;12.40;99.90;;;;;;4895045;29;20040;-77
2022/11/02 00:16:05;;;;;;;5.80;1.20;;;12.40;99.90;;;;;;4896271;29;20091;-77
2022/11/02 00:18:33;;;;;;;5.13;1.10;;;12.40;99.90;;;;;;4895485;29;20079;-78
2022/11/02 00:21:00;;;;;;;3.25;0.88;;;12.50;99.90;;;;;;4894654;29;20056;-78
2022/11/02 00:23:26;;;;;;;3.65;1.00;;;12.50;99.90;;;;;;4893302;29;20060;-77
2022/11/02 00:25:53;;;;;;;;;;;12.30;99.90;;;;;;4879902;29;20491;-76
2022/11/02 00:28:19;;;;;;;2.60;0.73;;;12.30;99.90;;;;;;4879335;29;20723;-77
2022/11/02 00:30:45;;;;;;;4.65;1.20;;;12.00;99.90;;;;;;4878586;29;20052;-77
2022/11/02 00:33:10;;;;;;;2.78;0.95;;;11.80;99.90;;;;;;4894317;29;20048;-77
2022/11/02 00:35:38;;;;;;;4.60;1.00;;;11.80;99.90;;;;;;4909442;29;20095;-78
2022/11/02 00:38:04;;;;;;;4.15;1.00;;;11.80;99.90;;;;;;4894425;29;20456;-77
2022/11/02 00:40:30;;;;;;;4.55;1.08;;;11.50;99.90;;;;;;4867154;29;20048;-77
2022/11/02 00:42:56;;;;;;;3.25;0.90;;;11.50;99.90;;;;;;4893642;29;20051;-77
2022/11/02 00:45:21;;;;;;;3.90;1.13;;;11.30;99.90;;;;;;4911205;29;20048;-77
2022/11/02 00:47:48;;;;;;;2.92;0.90;;;11.60;99.90;;;;;;4893761;29;20054;-79
2022/11/02 00:50:13;;;;;;;2.08;0.63;;;11.40;99.90;;;;;;4893225;29;20044;-78
2022/11/02 00:52:41;;;;;;;4.95;0.90;;;11.00;99.90;;;;;;4908854;29;20055;-74
2022/11/02 00:55:07;;;;;;;2.78;0.70;;;11.10;99.90;;;;;;4909581;29;20052;-73
2022/11/02 00:57:34;;;;;;;3.42;0.98;;;11.50;99.90;;;;;;4893375;29;20047;-73
2022/11/02 00:59:59;;;;;;;2.22;0.77;;;11.20;99.90;;;;;;4893913;29;20044;-73
2022/11/02 01:02:25;;;;;;;5.90;0.82;;;10.90;99.90;;;;;;4879209;29;20044;-73
2022/11/02 01:04:51;;;;;;;2.85;0.88;;;11.30;99.90;;;;;;4892623;29;20063;-73
2022/11/02 01:07:17;;;;;;;1.70;0.63;;;11.20;99.90;;;;;;4902075;29;20047;-73
2022/11/02 01:09:42;;;;;;;3.75;0.63;;;10.90;99.90;;;;;;4891706;29;20048;-72
2022/11/02 01:12:08;;;;;;;3.53;0.80;;;11.40;99.90;;;;;;4892029;29;20071;-73
2022/11/02 01:14:34;;;;;;;1.83;0.68;;;11.40;99.90;;;;;;4893241;29;20036;-73
2022/11/02 01:17:00;;;;;;;3.15;0.70;;;10.80;99.90;;;;;;4876905;29;20401;-73
2022/11/02 01:19:26;;;;;;;2.25;0.70;;;11.40;99.90;;;;;;4890453;29;20059;-73
2022/11/02 01:21:51;;;;;;;5.35;0.80;;;10.90;99.90;;;;;;4876095;29;20103;-72
2022/11/02 01:24:17;;;;;;;1.73;0.70;;;11.30;99.90;;;;;;4893686;29;20044;-78
2022/11/02 01:26:43;;;;;;;3.92;0.60;;;10.80;99.90;;;;;;4908543;29;20040;-77
2022/11/02 01:29:08;;;;;;;1.65;0.60;;;11.30;99.90;;;;;;4909184;29;20744;-77
2022/11/02 01:31:34;;;;;;;1.00;0.50;;;11.00;99.90;;;;;;4893737;29;20480;-78
2022/11/02 01:34:00;;;;;;;0.57;0.40;;;11.20;99.90;;;;;;4906443;29;20477;-78
2022/11/02 01:36:25;;;;;;;1.80;0.50;;;10.90;99.90;;;;;;4884453;29;20131;-78
2022/11/02 01:38:53;;;;;;;3.40;0.73;;;10.50;99.90;;;;;;4899792;29;20107;-78
2022/11/02 01:41:19;;;;;;;1.63;0.60;;;10.60;99.90;;;;;;4914845;29;20093;-79
2022/11/02 01:43:48;;;;;;;2.30;0.80;;;10.80;99.90;;;;;;4896637;29;20500;-80
2022/11/02 01:46:19;;;;;;;0.95;0.50;;;10.90;99.90;;;;;;4899650;29;20383;-79
2022/11/02 01:48:54;;;;;;;1.75;0.60;;;10.40;99.90;;;;;;4898259;29;20056;-79
2022/11/02 01:51:26;;;;;;;1.33;0.30;;;10.80;99.90;;;;;;4913373;29;20103;-79
2022/11/02 01:53:55;;;;;;;1.70;0.50;;;11.00;99.90;;;;;;4914406;29;20036;-80
2022/11/02 01:56:24;;;;;;;2.25;0.57;;;10.70;99.90;;;;;;4884872;29;20040;-78
2022/11/02 01:58:56;;;;;;;1.75;0.60;;;11.00;99.90;;;;;;4898683;29;20059;-79
2022/11/02 02:01:22;;;;;;;0.95;0.40;;;10.70;99.90;;;;;;4897846;29;20127;-78
2022/11/02 02:03:49;;;;;;;2.85;0.70;;;11.20;99.90;;;;;;4898600;29;20051;-78
2022/11/02 02:06:15;;;;;;;;;;;11.10;99.90;;;;;;4899878;29;20047;-72
2022/11/02 02:08:47;;;;;;;1.43;0.37;;;10.50;99.90;;;;;;4898601;29;20374;-74
2022/11/02 02:11:35;;;;;;;1.45;0.52;;;11.00;99.90;;;;;;4897617;29;20052;-75
2022/11/02 02:14:07;;;;;;;1.80;0.50;;;10.50;99.90;;;;;;4897668;29;20036;-75
2022/11/02 02:16:41;;;;;;;2.95;0.75;;;10.30;99.90;;;;;;4897539;29;20110;-75
2022/11/02 02:19:44;;;;;;;1.13;0.50;;;10.60;99.90;;;;;;4897301;29;21211;-74
2022/11/02 02:22:24;;;;;;;0.70;0.50;;;11.10;99.90;;;;;;4911697;29;20145;-75
2022/11/02 02:25:12;;;;;;;0.95;0.50;;;10.40;99.90;;;;;;4897826;29;20047;-74
2022/11/02 02:28:05;;;;;;;1.40;0.60;;;11.10;99.90;;;;;;4898192;29;20396;-73
2022/11/02 02:30:39;;;;;;;2.38;0.60;;;11.00;99.90;;;;;;4897562;29;20135;-73
2022/11/02 02:33:11;;;;;;;1.00;0.40;;;10.20;99.90;;;;;;4900117;29;20052;-73
2022/11/02 02:35:59;;;;;;;2.33;0.60;;;11.00;99.90;;;;;;4897155;29;20047;-77
2022/11/02 02:38:31;;;;;;;3.08;0.80;;;10.90;99.90;;;;;;4885660;29;20040;-78
2022/11/02 02:41:07;;;;;;;1.88;0.65;;;10.60;99.90;;;;;;4899725;29;20130;-78
2022/11/02 02:43:38;;;;;;;3.25;1.17;;;10.70;99.90;;;;;;4901483;29;20094;-79
2022/11/02 02:46:24;;;;;;;2.03;0.77;;;10.20;99.90;;;;;;4913704;29;20054;-80
2022/11/02 02:48:54;;;;;;;2.80;0.88;;;10.60;99.90;;;;;;4872845;29;20115;-79
2022/11/02 02:51:31;;;;;;;2.45;1.00;;;11.00;99.90;;;;;;4871581;29;20036;-79
2022/11/02 02:54:18;;;;;;;3.05;0.70;;;10.80;99.90;;;;;;4878951;29;20047;-78
2022/11/02 02:56:54;;;;;;;2.67;0.90;;;11.10;99.90;;;;;;4897294;29;20503;-79
2022/11/02 02:59:28;;;;;;;3.25;1.15;;;10.70;99.90;;;;;;4873221;29;20471;-79
2022/11/02 03:01:55;;;;;;;3.35;1.17;;;10.30;99.90;;;;;;4895277;29;20155;-79
2022/11/02 03:04:21;;;;;;;4.78;1.30;;;10.70;99.90;;;;;;4879918;29;20677;-80
2022/11/02 03:06:56;;;;;;;3.65;1.15;;;10.90;99.90;;;;;;4895260;29;20052;-79
2022/11/02 03:09:44;;;;;;;3.47;1.05;;;10.80;99.90;;;;;;4910930;29;20245;-78
2022/11/02 03:12:35;;;;;;;;;;;10.70;99.90;;;;;;4895763;29;20044;-79
2022/11/02 03:15:23;;;;;;;4.85;1.33;;;11.10;99.90;;;;;;4886859;29;19923;-79
2022/11/02 03:18:21;;;;;;;4.30;0.70;;;11.00;99.90;;;;;;4880532;29;20476;-79
2022/11/02 03:21:03;;;;;;;2.70;0.80;;;11.00;99.90;;;;;;4893742;29;20051;-79
2022/11/02 03:23:36;;;;;;;2.67;0.60;;;10.60;99.90;;;;;;4911765;29;20534;-79
2022/11/02 03:26:21;;;;;;;2.65;0.77;;;10.70;99.90;;;;;;4892129;29;20507;-80
2022/11/02 03:29:08;;;;;;;1.98;1.00;;;10.60;99.90;;;;;;4893206;29;20103;-78
2022/11/02 03:31:58;;;;;;;4.65;1.05;;;10.80;99.90;;;;;;4894467;29;20075;-80
2022/11/02 03:34:37;;;;;;;2.20;0.55;;;10.60;99.90;;;;;;4893258;29;20059;-79
2022/11/02 03:37:27;;;;;;;3.08;0.70;;;10.80;99.90;;;;;;4878441;29;20091;-80
2022/11/02 03:40:02;;;;;;;3.75;0.77;;;10.60;99.90;;;;;;4895133;29;20040;-75
2022/11/02 03:42:32;;;;;;;3.03;0.90;;;10.70;99.90;;;;;;4895209;29;20052;-80
2022/11/02 03:45:04;;;;;;;4.38;0.80;;;10.60;99.90;;;;;;4895411;29;20048;-79
2022/11/02 03:47:32;;;;;;;6.22;1.38;;;10.80;99.90;;;;;;4879866;29;20048;-79
2022/11/02 03:50:01;;;;;;;4.03;0.88;;;10.50;99.90;;;;;;4891713;29;20102;-79
2022/11/02 03:52:30;;;;;;;4.47;0.85;;;10.50;99.90;;;;;;4894604;29;20485;-79
2022/11/02 03:55:05;;;;;;;5.88;0.90;;;10.80;99.90;;;;;;4908940;29;20040;-80
2022/11/02 03:57:49;;;;;;;5.20;0.95;;;10.80;99.90;;;;;;4894489;29;20052;-78
2022/11/02 04:00:19;;;;;;;4.15;0.93;;;10.60;99.90;;;;;;4894440;29;20043;-80
2022/11/02 04:02:51;;;;;;;4.22;1.00;;;10.50;99.90;;;;;;4880344;29;20392;-78
2022/11/02 04:05:17;;;;;;;5.18;0.90;;;10.80;99.90;;;;;;4907489;29;20122;-79
2022/11/02 04:10:29;;;;;;;3.83;0.93;;;10.80;99.90;;;;;;4894546;29;19998;-79
2022/11/02 04:15:39;;;;;;;3.67;1.08;;;10.40;99.90;;;;;;4896005;29;20051;-79
2022/11/02 04:20:50;;;;;;;5.22;0.90;;;10.40;99.90;;;;;;4894648;29;20416;-79
2022/11/02 04:26:00;;;;;;;6.65;1.40;;;10.50;99.90;;;;;;4895422;29;20043;-79
2022/11/02 04:28:26;;;;;;;4.63;1.10;;;10.40;99.90;;;;;;4894331;29;20047;-78
2022/11/02 04:30:52;;;;;;;6.00;1.10;;;10.60;99.90;;;;;;4907377;29;20552;-80
2022/11/02 04:33:33;;;;;;;6.57;1.02;;;10.70;99.90;;;;;;4909796;29;20397;-80
2022/11/02 04:36:04;;;;;;;7.00;1.10;;;10.60;99.90;;;;;;4909877;29;20047;-79
2022/11/02 04:38:39;;;;;;;4.07;1.20;;;10.80;99.90;;;;;;4893942;29;20055;-79
2022/11/02 04:43:51;;;;;;;4.80;0.90;;;10.50;99.90;;;;;;4894984;29;20412;-79
2022/11/02 04:46:17;;;;;;;9.23;1.38;;;10.50;99.90;;;;;;4894353;29;21218;-80
2022/11/02 04:48:42;;;;;;;5.00;1.05;;;10.40;99.90;;;;;;4879222;29;20054;-81
2022/11/02 04:51:08;;;;;;;6.43;1.23;;;10.70;99.90;;;;;;4909652;29;20135;-80
2022/11/02 04:53:34;;;;;;;7.22;1.00;;;10.80;99.90;;;;;;4877962;29;20505;-80
2022/11/02 04:56:00;;;;;;;6.07;1.08;;;10.80;99.90;;;;;;4878991;29;20044;-79
2022/11/02 04:58:25;;;;;;;4.28;0.80;;;10.70;99.90;;;;;;4863323;29;20075;-80
2022/11/02 05:00:51;;;;;;;6.80;1.35;;;10.20;99.90;;;;;;4891907;29;20050;-80
2022/11/02 05:03:17;;;;;;;5.40;1.08;;;10.70;99.90;;;;;;4893843;29;20152;-80
2022/11/02 05:05:42;;;;;;;5.38;1.20;;;10.20;99.90;;;;;;4893085;29;20070;-80
2022/11/02 05:08:08;;;;;;;3.75;1.05;;;10.20;99.90;;;;;;4891740;29;20040;-78
2022/11/02 05:10:34;;;;;;;5.50;1.20;;;10.80;99.90;;;;;;4893262;29;20178;-80
2022/11/02 05:13:00;;;;;;;7.13;1.17;;;10.30;99.90;;;;;;4893857;29;20040;-78
2022/11/02 05:15:25;;;;;;;6.00;1.20;;;10.20;99.90;;;;;;4912147;29;20091;-79
2022/11/02 05:17:51;;;;;;;4.55;1.02;;;10.70;99.90;;;;;;4894424;29;20382;-78
2022/11/02 05:20:17;;;;;;;4.95;1.55;;;10.40;99.90;;;;;;4894650;29;20043;-78
2022/11/02 05:22:43;;;;;;;4.00;1.00;;;10.80;99.90;;;;;;4894384;29;20143;-77
2022/11/02 05:25:09;;;;;;;4.35;1.33;;;10.20;99.90;;;;;;4909734;29;20044;-79
2022/11/02 05:27:36;;;;;;;4.78;1.30;;;10.20;99.90;;;;;;4908939;29;20044;-78
2022/11/02 05:30:04;;;;;;;6.40;1.40;;;10.80;99.90;;;;;;4909420;29;20062;-78
2022/11/02 05:32:29;;;;;;;11.10;1.50;;;10.20;99.90;;;;;;4896017;29;20074;-77
2022/11/02 05:34:55;;;;;;;3.42;1.23;;;10.60;99.90;;;;;;4894240;29;20506;-75
2022/11/02 05:37:22;;;;;;;6.30;1.38;;;10.60;99.90;;;;;;4877331;29;20048;-81
2022/11/02 05:39:47;;;;;;;6.35;1.60;;;10.20;99.90;;;;;;4893301;29;20052;-73
2022/11/02 05:42:13;;;;;;;5.65;1.50;;;10.80;99.90;;;;;;4907201;29;20477;-76
2022/11/02 05:44:39;;;;;;;8.60;1.77;;;10.80;99.90;;;;;;4863036;29;20050;-77
2022/11/02 05:47:04;;;;;;;4.78;1.35;;;10.10;99.90;;;;;;4860748;29;20362;-76
2022/11/02 05:49:30;;;;;;;5.80;1.50;;;10.20;99.90;;;;;;4859986;29;20055;-74
2022/11/02 05:51:56;;;;;;;5.93;1.58;;;10.80;99.90;;;;;;4892903;29;20040;-76
2022/11/02 05:54:22;;;;;;;5.72;1.38;;;10.20;99.90;;;;;;4897156;29;20055;-74
2022/11/02 05:56:48;;;;;;;7.78;1.48;;;10.20;99.90;;;;;;4884866;29;20403;-73
2022/11/02 05:59:13;;;;;;;5.60;1.23;;;10.90;99.90;;;;;;4898768;29;20448;-74
2022/11/02 06:01:39;;;;;;;6.50;1.50;;;10.80;99.90;;;;;;4906027;29;20101;-74
2022/11/02 06:04:05;;;;;;;7.20;1.45;;;10.60;99.90;;;;;;4889612;29;20420;-74
2022/11/02 06:06:31;;;;;;;6.22;1.50;;;10.90;99.90;;;;;;4906671;29;20075;-73
2022/11/02 06:08:56;;;;;;;7.03;1.60;;;10.60;99.90;;;;;;4905481;29;20043;-74
2022/11/02 06:11:22;;;;;;;7.22;1.42;;;10.70;99.90;;;;;;4910746;29;20048;-74
2022/11/02 06:13:49;;;;;;;5.75;1.52;;;10.20;99.90;;;;;;4900056;29;20641;-73
2022/11/02 06:16:16;;;;;;;8.60;1.73;;;10.80;99.90;;;;;;4916198;29;20044;-73
2022/11/02 06:18:42;;;;;;;7.20;1.30;;;10.40;99.90;;;;;;4915876;29;20054;-74
2022/11/02 06:21:09;;;;;;;5.60;1.73;;;10.70;99.90;;;;;;4916527;29;20138;-73
2022/11/02 06:23:35;;;;;;;6.18;1.35;;;10.30;99.90;;;;;;4919643;29;20082;-72
2022/11/02 06:26:01;;;;;;;7.03;1.85;;;10.30;99.90;;;;;;4903760;29;20047;-74
2022/11/02 06:28:28;;;;;;;6.80;1.63;;;10.90;99.90;;;;;;4917621;29;20079;-73
2022/11/02 06:30:54;;;;;;;5.50;1.40;;;10.90;99.90;;;;;;4908596;29;20051;-73
2022/11/02 06:33:20;;;;;;;7.57;1.48;;;10.60;99.90;;;;;;4919384;29;20484;-74
2022/11/02 06:35:48;;;;;;;3.65;1.08;;;11.00;99.90;;;;;;4892171;29;20040;-73
2022/11/02 06:38:15;;;;;;;6.00;1.27;;;10.30;99.90;;;;;;4915880;29;20063;-75
2022/11/02 06:40:41;;;;;;;7.80;1.70;;;10.50;99.90;;;;;;4899262;29;20048;-71
2022/11/02 06:43:07;;;;;;;3.67;1.30;;;10.80;99.90;;;;;;4898423;29;20106;-73
2022/11/02 06:45:33;;;;;;;7.13;2.08;;;10.40;99.90;;;;;;4883733;29;20054;-72
2022/11/02 06:47:58;;;;;;;7.30;1.67;;;10.70;99.90;;;;;;4883926;29;20040;-72
2022/11/02 06:50:24;;;;;;;7.28;1.42;;;10.50;99.90;;;;;;4899664;29;20040;-73
2022/11/02 06:52:50;;;;;;;4.85;1.27;;;10.50;99.90;;;;;;4884353;29;20045;-73
2022/11/02 06:55:17;;;;;;;6.00;1.35;;;10.50;99.90;;;;;;4900089;29;20047;-73
2022/11/02 06:57:43;;;;;;;6.63;1.40;;;10.40;99.90;;;;;;4884880;29;20047;-72
2022/11/02 07:00:12;;;;;;;5.85;1.70;;;10.70;99.90;;;;;;4884704;29;20055;-73
2022/11/02 07:02:41;;;;;;;5.78;1.30;;;11.10;99.90;;;;;;4884385;29;20058;-73
2022/11/02 07:05:07;;;;;;;5.72;1.55;;;10.90;99.90;;;;;;4899763;29;20044;-73
2022/11/02 07:07:33;;;;;;;5.15;1.30;;;10.80;99.90;;;;;;4884246;29;20087;-72
2022/11/02 07:09:58;;;;;;;7.00;1.40;;;11.00;99.90;;;;;;4899915;29;20087;-72
2022/11/02 07:12:25;;;;;;;5.18;1.20;;;11.30;99.90;;;;;;4899940;29;20059;-74
2022/11/02 07:14:51;;;;;;;6.32;1.42;;;10.70;99.90;;;;;;4899547;29;20048;-74
2022/11/02 07:17:17;;;;;;;7.05;1.90;;;10.60;99.90;;;;;;4884218;29;20043;-72
2022/11/02 07:19:42;;;;;;;7.95;1.40;;;10.90;99.90;;;;;;4899374;29;20127;-71
2022/11/02 07:22:08;;;;;;;6.45;1.67;;;10.70;99.90;;;;;;4884175;29;20532;-73
2022/11/02 07:24:34;;;;;;;9.32;1.30;;;11.30;99.90;;;;;;4899222;29;20083;-72
2022/11/02 07:26:59;;;;;;;5.60;1.27;;;11.30;99.90;;;;;;4883623;29;20052;-71
2022/11/02 07:29:25;;;;;;;6.07;1.48;;;10.50;99.90;;;;;;4883754;29;20060;-72
2022/11/02 07:31:51;;;;;;;6.82;1.30;;;11.10;99.90;;;;;;4899341;29;20060;-77
2022/11/02 07:34:17;;;;;;;6.35;1.75;;;10.70;99.90;;;;;;4899781;29;20080;-77
2022/11/02 07:36:42;;;;;;;5.45;1.15;;;11.20;99.90;;;;;;4899924;29;20503;-78
2022/11/02 07:39:08;;;;;;;7.00;0.95;;;10.50;99.90;;;;;;4899362;29;20095;-78
2022/11/02 07:41:34;;;;;;;4.57;1.00;;;11.10;99.90;;;;;;4900855;29;20055;-76
2022/11/02 07:44:00;;;;;;;4.45;1.30;;;11.00;99.90;;;;;;4901714;29;20055;-78
2022/11/02 07:46:26;;;;;;;4.65;1.48;;;10.40;99.90;;;;;;4901766;29;20044;-77
2022/11/02 07:48:51;;;;;;;5.78;1.00;;;10.80;99.90;;;;;;4900140;29;20067;-77
2022/11/02 07:51:17;;;;;;;5.10;1.02;;;10.50;99.90;;;;;;4899422;29;20052;-78
2022/11/02 07:53:43;;;;;;;3.47;1.05;;;10.50;99.90;;;;;;4899846;29;20084;-77
2022/11/02 07:56:10;;;;;;;2.35;0.77;;;10.60;99.90;;;;;;4886074;29;20499;-78
2022/11/02 07:58:35;;;;;;;3.22;0.73;;;10.50;99.90;;;;;;4884298;29;20036;-78
2022/11/02 08:01:01;;;;;;;3.22;0.80;;;10.70;99.90;;;;;;4900737;29;20055;-78
2022/11/02 08:03:28;;;;;;;3.47;0.70;;;10.70;99.90;;;;;;4899777;29;20040;-77
2022/11/02 08:05:54;;;;;;;4.32;0.95;;;10.70;99.90;;;;;;4899549;29;20048;-78
2022/11/02 08:08:24;;;;;;;5.03;0.90;;;10.80;99.90;;;;;;4899322;29;20551;-78
2022/11/02 08:10:51;;;;;;;5.22;0.98;;;10.80;99.90;;;;;;4898958;29;20416;-78
2022/11/02 08:13:24;;;;;;;3.58;0.90;;;10.90;99.90;;;;;;4898981;29;20055;-78
2022/11/02 08:15:52;;;;;;;3.53;0.88;;;11.00;99.90;;;;;;4898815;29;20063;-79
2022/11/02 08:18:22;;;;;;;6.13;1.10;;;11.00;99.90;;;;;;4898799;29;20040;-78
2022/11/02 08:20:48;;;;;;;4.22;1.20;;;11.10;99.90;;;;;;4898816;29;20036;-79
2022/11/02 08:23:16;;;;;;;6.13;0.98;;;11.10;99.90;;;;;;4883250;29;20793;-78
2022/11/02 08:25:44;;;;;;;3.85;1.00;;;11.10;99.90;;;;;;4898398;29;20055;-78
2022/11/02 08:28:24;;;;;;;4.05;0.82;;;11.20;99.90;;;;;;4883250;29;20044;-77
2022/11/02 08:30:50;;;;;;;4.32;0.88;;;11.30;99.90;;;;;;4895403;29;20064;-78
2022/11/02 08:33:19;;;;;;;5.68;0.93;;;11.50;99.90;;;;;;4895584;29;20459;-77
2022/11/02 08:35:46;;;;;;;3.70;1.08;;;11.50;99.90;;;;;;4880277;29;20131;-78
2022/11/02 08:38:13;;;;;;;3.38;1.23;;;11.30;99.90;;;;;;4895331;29;20044;-78
2022/11/02 08:40:39;;;;;;;3.20;1.00;;;11.40;99.90;;;;;;4879939;29;20080;-78
2022/11/02 08:43:07;;;;;;;3.40;0.88;;;11.60;99.90;;;;;;4879290;29;20484;-73
2022/11/02 08:45:34;;;;;;;4.57;0.98;;;11.60;99.90;;;;;;4878290;29;20045;-73
2022/11/02 08:47:59;;;;;;;4.38;0.93;;;11.30;99.90;;;;;;4879547;29;20575;-72
2022/11/02 08:50:26;;;;;;;5.03;1.00;;;11.30;99.90;;;;;;4894936;29;20135;-72
2022/11/02 08:52:52;;;;;;;;;;;11.50;99.90;;;;;;4895101;29;20489;-72
2022/11/02 08:55:17;;;;;;;4.82;1.20;;;11.40;99.90;;;;;;4879146;29;19930;-72
2022/11/02 08:57:44;;;;;;;3.67;1.33;;;11.60;99.90;;;;;;4879299;29;20054;-72
2022/11/02 09:00:10;;;;;;;6.15;1.15;;;11.70;99.90;;;;;;4878935;29;20052;-73
2022/11/02 09:02:36;;;;;;;;;;;11.50;99.90;;;;;;4879772;29;20048;-71
2022/11/02 09:05:01;;;;;;;3.97;0.90;;;11.50;99.90;;;;;;4894576;29;19930;-72
2022/11/02 09:07:27;;;;;;;5.00;1.25;;;11.80;99.90;;;;;;4863879;29;20049;-72
2022/11/02 09:09:53;;;;;;;5.80;1.05;;;11.80;99.90;;;;;;4894169;29;20408;-71
2022/11/02 09:12:19;;;;;;;7.97;0.93;;;11.80;99.90;;;;;;4878661;29;20095;-72
2022/11/02 09:14:44;;;;;;;5.45;1.10;;;11.90;99.90;;;;;;4878923;29;20088;-71
2022/11/02 09:17:10;;;;;;;5.90;1.10;;;11.80;99.90;;;;;;4894449;29;20544;-71
2022/11/02 09:19:36;;;;;;;5.13;0.95;;;12.00;99.90;;;;;;4894109;29;20505;-72
2022/11/02 09:22:01;;;;;;;4.03;0.90;;;12.00;99.90;;;;;;4894629;29;20063;-71
2022/11/02 09:24:27;;;;;;;9.32;1.95;;;12.00;99.90;;;;;;4878500;29;20136;-72
2022/11/02 09:26:53;;;;;;;7.82;1.25;;;12.40;99.90;;;;;;4894304;29;20044;-72
2022/11/02 09:29:18;;;;;;;6.50;1.55;;;12.30;99.90;;;;;;4894408;29;20061;-72
2022/11/02 09:31:44;;;;;;;7.32;1.90;;;12.50;99.90;;;;;;4897003;29;20056;-71
2022/11/02 09:34:10;;;;;;;5.93;1.73;;;12.40;99.90;;;;;;4897137;29;20484;-74
2022/11/02 09:36:35;;;;;;;4.82;1.23;;;12.50;99.90;;;;;;4896955;29;20048;-71
2022/11/02 09:39:01;;;;;;;7.63;1.50;;;12.50;99.90;;;;;;4897172;29;20048;-73
2022/11/02 09:41:40;;;;;;;6.95;1.33;;;12.60;99.90;;;;;;4897179;29;20048;-71
2022/11/02 09:44:15;;;;;;;6.53;1.38;;;12.70;99.90;;;;;;4881604;29;20044;-72
2022/11/02 09:46:43;;;;;;;5.88;1.17;;;12.70;99.90;;;;;;4897133;29;20051;-71
2022/11/02 09:49:19;;;;;;;9.43;1.50;;;13.00;99.90;;;;;;4896989;29;20079;-70
2022/11/02 09:51:54;;;;;;;10.88;1.50;;;12.90;99.90;;;;;;4897082;29;20342;-71
2022/11/02 09:54:27;;;;;;;8.65;1.77;;;13.00;99.90;;;;;;4897367;29;20110;-71
2022/11/02 09:56:57;;;;;;;9.15;1.77;;;13.00;99.90;;;;;;4899816;29;20051;-70
2022/11/02 09:59:25;;;;;;;10.55;1.52;;;13.00;99.90;;;;;;4901049;29;20099;-71
2022/11/02 10:02:00;;;;;;;10.05;1.70;;;13.00;99.90;;;;;;4901146;29;20514;-71
2022/11/02 10:04:47;;;;;;;9.98;1.80;;;12.90;99.90;;;;;;4885151;29;20052;-71
2022/11/02 10:07:37;;;;;;;6.38;1.40;;;12.80;99.90;;;;;;4900618;29;20040;-71
2022/11/02 10:10:16;;;;;;;7.32;1.58;;;12.90;99.90;;;;;;4900693;29;20059;-71
2022/11/02 10:13:14;;;;;;;7.80;1.42;;;12.80;99.90;;;;;;4900616;29;20402;-71
2022/11/02 10:15:52;;;;;;;9.45;1.75;;;12.70;99.90;;;;;;4897517;29;20048;-71
2022/11/02 10:18:25;;;;;;;7.88;1.52;;;12.60;99.90;;;;;;4900785;29;20126;-72
2022/11/02 10:20:56;;;;;;;7.10;1.65;;;12.40;99.90;;;;;;4900660;29;20134;-72
2022/11/02 10:23:35;;;;;;;9.27;1.80;;;12.40;99.90;;;;;;4885044;29;20432;-71
2022/11/02 10:26:01;;;;;;;7.25;1.35;;;12.30;99.90;;;;;;4900517;29;20044;-72
2022/11/02 10:28:32;;;;;;;;;;;12.20;99.90;;;;;;4885517;29;20390;-71
2022/11/02 10:30:59;;;;;;;10.63;1.50;;;12.20;99.90;;;;;;4915947;29;20393;-71
2022/11/02 10:33:27;;;;;;;5.35;1.20;;;12.20;99.90;;;;;;4900813;29;20063;-77
2022/11/02 10:36:08;;;;;;;7.07;1.35;;;12.20;99.90;;;;;;4901007;29;20440;-76
2022/11/02 10:38:38;;;;;;;8.80;1.65;;;12.50;99.90;;;;;;4885721;29;20040;-77
2022/11/02 10:41:43;;;;;;;6.22;1.42;;;12.70;99.90;;;;;;4885665;29;20080;-76
2022/11/02 10:44:35;;;;;;;8.10;1.92;;;12.80;99.90;;;;;;4880108;29;20067;-76
2022/11/02 10:47:16;;;;;;;8.07;1.25;;;12.90;99.90;;;;;;4900386;29;20052;-77
2022/11/02 10:49:42;;;;;;;8.00;1.80;;;12.90;99.90;;;;;;4901407;29;20051;-76
2022/11/02 10:52:12;;;;;;;7.72;1.50;;;13.10;99.90;;;;;;4885069;29;20051;-76
2022/11/02 10:54:38;;;;;;;8.20;2.20;;;13.30;99.90;;;;;;4900708;29;20047;-77
2022/11/02 10:57:24;;;;;;;9.60;1.70;;;13.80;99.90;;;;;;4901047;29;20127;-71
2022/11/02 11:00:32;;;;;;;5.72;1.38;;;14.10;99.90;;;;;;4917063;29;20052;-71
2022/11/02 11:03:12;;;;;;;6.45;1.58;;;14.20;99.90;;;;;;4900241;29;20091;-71
2022/11/02 11:05:56;;;;;;;6.72;1.38;;;14.40;99.90;;;;;;4899659;29;20083;-71
2022/11/02 11:08:36;;;;;;;5.45;1.30;;;14.60;99.90;;;;;;4898832;29;20507;-70
2022/11/02 11:11:09;;;;;;;5.57;1.08;;;14.50;99.90;;;;;;4900107;29;20168;-71
2022/11/02 11:13:35;;;;;;;6.95;1.13;;;14.30;99.90;;;;;;4899435;29;20050;-72
2022/11/02 11:16:02;;;;;;;;;;;14.30;99.90;;;;;;4884655;29;20039;-72
2022/11/02 11:18:28;;;;;;;6.72;1.40;;;14.50;99.90;;;;;;4899861;29;20266;-72
2022/11/02 11:20:55;;;;;;;7.78;1.35;;;14.60;99.90;;;;;;4883907;29;20056;-72
2022/11/02 11:23:21;;;;;;;;;;;14.90;99.90;;;;;;4899996;29;20059;-73
2022/11/02 11:26:05;;;;;;;4.03;1.05;;;15.00;99.90;;;;;;4915596;29;20034;-72
2022/11/02 11:28:50;;;;;;;7.75;1.58;;;15.00;99.90;;;;;;4899794;29;20048;-72
2022/11/02 11:31:17;;;;;;;5.03;1.30;;;15.00;99.90;;;;;;4899532;29;20078;-72
2022/11/02 11:33:46;;;;;;;5.18;1.20;;;15.20;99.90;;;;;;4899403;29;20048;-73
2022/11/02 11:36:30;;;;;;;6.55;1.50;;;15.40;99.90;;;;;;4899591;29;20043;-73
2022/11/02 11:38:59;;;;;;;7.40;1.35;;;15.40;99.90;;;;;;4899328;29;20396;-71
2022/11/02 11:41:26;;;;;;;3.88;1.13;;;15.60;99.90;;;;;;4899890;29;20070;-71
2022/11/02 11:43:52;;;;;;;6.43;1.27;;;15.30;99.90;;;;;;4883527;29;20131;-72
2022/11/02 11:46:18;;;;;;;9.50;1.63;;;15.30;99.90;;;;;;4899107;29;20103;-72
2022/11/02 11:48:48;;;;;;;5.70;1.00;;;15.00;99.80;;;;;;4899049;29;20044;-72
2022/11/02 11:51:41;;;;;;;5.30;1.13;;;14.70;99.90;;;;;;4898925;29;20052;-71
2022/11/02 11:54:21;;;;;;;5.28;1.20;;;14.80;99.90;;;;;;4894561;29;20636;-71
2022/11/02 11:56:49;;;;;;;6.72;1.20;;;14.60;99.90;;;;;;4883320;29;20044;-71
2022/11/02 11:59:22;;;;;;;8.20;1.35;;;14.80;99.90;;;;;;4883473;29;20040;-74
2022/11/02 12:01:50;;;;;;;6.72;1.20;;;14.80;99.90;;;;;;4899306;29;20055;-72
2022/11/02 12:04:26;;;;;;;4.63;1.00;;;14.90;99.50;;;;;;4898894;29;20063;-72
2022/11/02 12:07:18;;;;;;;3.92;0.93;;;15.00;99.90;;;;;;4883395;29;20048;-70
2022/11/02 12:10:06;;;;;;;4.25;1.10;;;15.10;99.90;;;;;;4898794;29;20094;-71
2022/11/02 12:13:01;;;;;;;4.47;1.02;;;15.10;99.90;;;;;;4899321;29;20052;-73
2022/11/02 12:15:45;;;;;;;4.97;1.00;;;15.20;99.90;;;;;;4899186;29;20044;-73
2022/11/02 12:18:49;;;;;;;6.38;1.20;;;15.00;99.80;;;;;;4915638;29;20044;-72
2022/11/02 12:21:35;;;;;;;3.72;0.82;;;14.90;99.90;;;;;;4878833;29;20523;-71
2022/11/02 12:24:23;;;;;;;4.70;0.80;;;14.80;99.90;;;;;;4898477;29;20158;-73
2022/11/02 12:27:07;;;;;;;;;;;14.90;99.90;;;;;;4883246;29;20086;-72
2022/11/02 12:29:59;;;;;;;5.18;1.20;;;15.00;99.90;;;;;;4898513;29;19930;-71
2022/11/02 12:32:36;;;;;;;6.10;1.23;;;14.80;99.40;;;;;;4897938;29;20115;-72
2022/11/02 12:35:21;;;;;;;6.45;1.20;;;14.80;99.70;;;;;;4898109;29;20056;-72
2022/11/02 12:38:06;;;;;;;5.68;1.20;;;14.80;99.90;;;;;;4882764;29;20369;-71
2022/11/02 12:40:42;;;;;;;6.35;1.25;;;14.80;99.40;;;;;;4897955;29;20056;-71
2022/11/02 12:43:29;;;;;;;6.80;1.35;;;14.90;99.20;;;;;;4898173;29;20401;-71
2022/11/02 12:45:55;;;;;;;;;;;14.90;99.40;;;;;;4882796;29;20071;-71
2022/11/02 12:48:47;;;;;;;5.88;1.00;;;15.10;99.90;;;;;;4913703;29;19923;-71
2022/11/02 12:51:29;;;;;;;5.72;1.30;;;15.10;99.30;;;;;;4898034;29;20100;-71
2022/11/02 12:54:03;;;;;;;5.55;1.10;;;15.20;99.90;;;;;;4881997;29;20500;-71
2022/11/02 12:56:38;;;;;;;3.97;1.30;;;15.30;99.90;;;;;;4914988;29;20375;-71
2022/11/02 12:59:04;;;;;;;6.70;1.20;;;15.30;99.10;;;;;;4897808;29;20544;-71
2022/11/02 13:01:41;;;;;;;7.95;2.13;;;15.10;99.90;;;;;;4898042;29;20083;-72
2022/11/02 13:04:36;;;;;;;4.60;1.33;;;15.00;99.90;;;;;;4897603;29;20609;-71
2022/11/02 13:07:14;;;;;;;6.50;1.50;;;14.80;99.90;;;;;;4897527;29;20086;-71
2022/11/02 13:09:58;;;;;;;5.25;1.10;;;14.60;99.90;;;;;;4882178;29;20151;-71
2022/11/02 13:12:25;;;;;;;6.90;1.45;;;14.70;99.90;;;;;;4897763;29;20052;-71
2022/11/02 13:14:54;;;;;;;7.18;1.50;;;14.80;99.90;;;;;;4897711;29;20093;-73
2022/11/02 13:17:38;;;;;;;7.53;1.50;;;14.90;99.90;;;;;;4897609;29;20051;-71
2022/11/02 13:20:22;;;;;;;5.85;1.27;;;15.10;99.90;;;;;;4897429;29;20805;-71
2022/11/02 13:23:16;;;;;;;4.78;1.10;;;15.30;99.90;;;;;;4897723;29;20508;-72
2022/11/02 13:25:48;;;;;;;5.63;1.30;;;15.20;99.90;;;;;;4897182;29;20475;-71